Flight Track Log - Related Links

Times and Time Zones

All times are in EDT time to prevent confusion due to time zone crossing. See the EJA122 flight status page for this flight to view local times or setup timezone preferences in your user account.

Time Position Orientation Groundspeed Altitude Reporting Facility
EDT Latitude Longitude Course Direction KTS MPH feet Rate Location/Type
Wed 09:58:04 AM 42.6694 -73.8067 177° South 270 311 3,400  Level Boston Center
Wed 09:58:59 AM 42.6086 -73.8308 196° South 277 319 7,500 2,977 Climbing Boston Center
Wed 10:00:17 AM 42.6008 -73.9519 265° West 286 329 10,000 1,130 Climbing Boston Center
Wed 10:01:17 AM 42.6011 -74.0817 270° West 296 341 10,100 1,250 Climbing Boston Center
Wed 10:02:17 AM 42.6017 -74.1889 270° West 316 364 12,500 2,182 Climbing Boston Center
Wed 10:03:18 AM 42.5519 -74.2889 236° Southwest 301 346 14,500 1,950 Climbing Boston Center
Wed 10:04:17 AM 42.4750 -74.2839 177° South 264 304 16,400 1,714 Climbing Boston Center
Wed 10:05:17 AM 42.3972 -74.2000 141° Southeast 265 305 17,900 1,300 Climbing Boston Center
Wed 10:06:17 AM 42.3275 -74.1306 144° Southeast 332 382 19,000 1,000 Climbing Boston Center
Wed 10:07:17 AM 42.2450 -74.0694 151° Southeast 337 388 19,900 950 Climbing Boston Center
Wed 10:08:17 AM 42.1489 -74.0725 181° South 337 388 20,900 1,000 Climbing Boston Center
Wed 10:09:17 AM 42.0589 -74.1122 198° South 329 379 21,900 1,200 Climbing Boston Center
Wed 10:10:17 AM 41.9664 -74.1517 198° South 335 386 23,300 1,450 Climbing Boston Center
Wed 10:11:17 AM 41.8783 -74.1911 198° South 340 391 24,800 1,600 Climbing Boston Center
Wed 10:12:17 AM 41.7861 -74.2303 198° South 345 397 26,500 1,500 Climbing Boston Center
Wed 10:14:05 AM 41.6336 -74.2958 198° South 349 402 29,000 1,265 Climbing New York Center
Wed 10:15:03 AM 41.5494 -74.3331 198° South 341 392 30,000 1,050 Climbing New York Center
Wed 10:16:05 AM 41.4586 -74.3753 199° South 341 392 31,100 1,050 Climbing New York Center
Wed 10:17:03 AM 41.3672 -74.4283 204° Southwest 347 399 32,100 1,059 Climbing New York Center
Wed 10:18:04 AM 41.2958 -74.5183 223° Southwest 353 406 33,200 1,041 Climbing New York Center
Wed 10:19:04 AM 41.2303 -74.6167 228° Southwest 358 412 34,200 1,000 Climbing New York Center
Wed 10:20:04 AM 41.1644 -74.7178 229° Southwest 358 412 35,200 850 Climbing New York Center
Wed 10:21:04 AM 41.0986 -74.8158 228° Southwest 363 418 35,900 655 Climbing New York Center
Wed 10:22:03 AM 41.0308 -74.9053 225° Southwest 372 428 36,500 555 Climbing New York Center
Wed 10:23:03 AM 40.9581 -75.0189 230° Southwest 377 434 37,000 545 Climbing New York Center
Wed 10:24:04 AM 40.8858 -75.1186 226° Southwest 382 440 37,600 600 Climbing New York Center
Wed 10:25:03 AM 40.8025 -75.2314 226° Southwest 389 448 38,200 504 Climbing New York Center
Wed 10:26:03 AM 40.7425 -75.3258 230° Southwest 389 448 38,600 496 Climbing New York Center
Wed 10:27:04 AM 40.6697 -75.4278 227° Southwest 384 442 39,200 492 Climbing New York Center
Wed 10:28:05 AM 40.5969 -75.5322 227° Southwest 384 442 39,600 403 Climbing New York Center
Wed 10:29:03 AM 40.5236 -75.6392 228° Southwest 384 442 40,000 202 Climbing New York Center
Wed 10:30:04 AM 40.4464 -75.7428 226° Southwest 389 448 40,000  Level New York Center
Wed 10:31:04 AM 40.3731 -75.8519 229° Southwest 400 460 40,000  Level New York Center
Wed 10:32:03 AM 40.2850 -75.9597 223° Southwest 416 479 40,000  Level New York Center
Wed 10:33:04 AM 40.2131 -76.0794 232° Southwest 422 486 40,000  Level New York Center
Wed 10:34:05 AM 40.1569 -76.2108 241° Southwest 422 486 40,000  Level New York Center
Wed 10:36:21 AM 40.0039 -76.5150 237° Southwest 424 488 40,000  Level Washington Center
Wed 10:37:21 AM 39.9383 -76.6442 237° Southwest 429 494 40,000  Level Washington Center
Wed 10:38:19 AM 39.8789 -76.7567 235° Southwest 429 494 40,000  Level Washington Center
Wed 10:39:20 AM 39.8172 -76.8881 239° Southwest 429 494 40,000  Level Washington Center
Wed 10:40:21 AM 39.7511 -77.0192 237° Southwest 434 499 40,000  Level Washington Center
Wed 10:41:19 AM 39.6869 -77.1447 236° Southwest 434 499 40,000  Level Washington Center
Wed 10:42:21 AM 39.6228 -77.2725 237° Southwest 434 499 40,000  Level Washington Center
Wed 10:43:21 AM 39.5583 -77.4003 237° Southwest 434 499 40,000  Level Washington Center
Wed 10:44:21 AM 39.4961 -77.5253 237° Southwest 434 499 40,000  Level Washington Center
Wed 10:45:19 AM 39.4292 -77.6550 236° Southwest 434 499 40,000  Level Washington Center
Wed 10:46:19 AM 39.3667 -77.7822 238° Southwest 434 499 40,000  Level Washington Center
Wed 10:47:20 AM 39.2997 -77.9089 236° Southwest 434 499 40,000  Level Washington Center
Wed 10:48:20 AM 39.2347 -78.0353 236° Southwest 434 499 40,000  Level Washington Center
Wed 10:49:21 AM 39.1675 -78.1589 235° Southwest 434 499 40,000  Level Washington Center
Wed 10:50:19 AM 39.1022 -78.2878 237° Southwest 434 499 40,000  Level Washington Center
Wed 10:51:20 AM 39.0367 -78.4136 236° Southwest 434 499 40,000  Level Washington Center
Wed 10:52:21 AM 38.9689 -78.5392 235° Southwest 434 499 40,000  Level Washington Center
Wed 10:53:19 AM 38.9033 -78.6619 236° Southwest 434 499 40,000  Level Washington Center
Wed 10:54:19 AM 38.8375 -78.7897 237° Southwest 434 499 40,000  Level Washington Center
Wed 10:55:20 AM 38.7717 -78.9119 235° Southwest 434 499 40,000  Level Washington Center
Wed 10:56:21 AM 38.7033 -79.0394 236° Southwest 434 499 40,000  Level Washington Center
Wed 10:57:19 AM 38.6394 -79.1639 237° Southwest 434 499 40,000  Level Washington Center
Wed 10:58:19 AM 38.5750 -79.2911 237° Southwest 434 499 40,000  Level Washington Center
Wed 10:59:21 AM 38.4997 -79.4278 235° Southwest 433 498 40,000  Level Washington Center
Wed 11:00:19 AM 38.4467 -79.5258 235° Southwest 433 498 40,000  Level Washington Center
Wed 11:01:19 AM 38.3667 -79.6753 236° Southwest 433 498 40,000  Level Washington Center
Wed 11:02:21 AM 38.2975 -79.8011 235° Southwest 433 498 40,000  Level Washington Center
Wed 11:03:21 AM 38.2353 -79.9114 234° Southwest 433 498 40,000  Level Washington Center
Wed 11:04:19 AM 38.1681 -80.0369 236° Southwest 433 498 40,000  Level Washington Center
Wed 11:05:20 AM 38.0989 -80.1594 234° Southwest 433 498 40,000  Level Washington Center
Wed 11:07:09 AM 37.9694 -80.3839 234° Southwest 426 490 40,000  Level Indianapolis Center
Wed 11:08:10 AM 37.9053 -80.5003 235° Southwest 427 491 40,000  Level Indianapolis Center
Wed 11:09:12 AM 37.8361 -80.6222 234° Southwest 425 489 40,000  Level Indianapolis Center
Wed 11:10:14 AM 37.7556 -80.7639 234° Southwest 428 493 40,000  Level Indianapolis Center
Wed 11:11:15 AM 37.6889 -80.8811 234° Southwest 426 490 40,000 -780 Level Indianapolis Center
Wed 11:12:17 AM 37.6231 -81.0003 235° Southwest 427 491 38,400 -2,806 Descending Indianapolis Center
Wed 11:13:19 AM 37.5392 -81.1450 234° Southwest 438 504 34,200 -2,585 Descending Indianapolis Center
Wed 11:14:20 AM 37.4708 -81.2653 234° Southwest 437 503 33,100 -1,268 Descending Indianapolis Center
Wed 11:15:22 AM 37.3981 -81.3906 234° Southwest 453 521 31,600 -1,597 Descending Indianapolis Center
Wed 11:16:24 AM 37.3136 -81.5381 234° Southwest 464 534 29,800 -1,659 Descending Indianapolis Center
Wed 11:17:25 AM 37.2375 -81.6681 234° Southwest 461 531 28,200 -1,512 Descending Indianapolis Center
Wed 11:18:27 AM 37.1619 -81.7997 234° Southwest 463 533 26,700 -1,452 Descending Indianapolis Center
Wed 11:19:29 AM 37.0850 -81.9322 234° Southwest 469 540 25,200 -1,171 Descending Indianapolis Center
Wed 11:20:30 AM 37.0089 -82.0614 234° Southwest 463 533 24,300 -585 Descending Indianapolis Center
Wed 11:21:32 AM 36.9344 -82.1889 234° Southwest 453 521 24,000 -537 Descending Indianapolis Center
Wed 11:22:33 AM 36.8461 -82.3378 233° Southwest 454 522 23,200 -927 Descending Indianapolis Center
Wed 11:23:35 AM 36.7719 -82.4628 233° Southwest 447 514 22,100 -1,016 Descending Indianapolis Center
Wed 11:24:37 AM 36.7069 -82.5914 238° Southwest 436 502 21,100 -976 Descending Indianapolis Center
Wed 11:25:38 AM 36.6475 -82.7233 241° Southwest 432 497 20,100 -947 Descending Indianapolis Center
Wed 11:26:12 AM 36.6150 -82.7844 236° Southwest 427 491 19,600 -1,021 Descending Atlanta Center
Wed 11:27:12 AM 36.5347 -82.8917 227° Southwest 427 491 18,500 -1,067 Descending Atlanta Center
Wed 11:27:42 AM 36.4928 -82.9408 223° Southwest 414 476 18,000 -923 Descending Indianapolis Center
Wed 11:28:43 AM 36.4200 -83.0453 229° Southwest 401 461 17,100 -927 Descending Indianapolis Center
Wed 11:29:45 AM 36.3536 -83.1608 235° Southwest 408 470 16,100 -891 Descending Indianapolis Center
Wed 11:30:24 AM 36.3142 -83.2219 231° Southwest 410 472 15,600 -1,030 Descending Atlanta Center
Wed 11:31:24 AM 36.2397 -83.3411 232° Southwest 410 472 14,400 -1,100 Descending Atlanta Center
Wed 11:32:24 AM 36.1717 -83.4447 231° Southwest 402 463 13,400 -950 Descending Atlanta Center
Wed 11:33:24 AM 36.1114 -83.5400 232° Southwest 402 463 12,500 -1,000 Descending Atlanta Center
Wed 11:34:24 AM 36.0367 -83.6511 230° Southwest 397 457 11,400 -1,350 Descending Atlanta Center
Wed 11:35:24 AM 35.9744 -83.7411 230° Southwest 379 436 9,800 -2,300 Descending Atlanta Center
Wed 11:36:24 AM 35.9014 -83.7492 185° South 289 333 6,800 -2,800 Descending Atlanta Center
Wed 11:37:24 AM 35.8642 -83.8031 230° Southwest 265 305 4,200 -1,800 Descending Atlanta Center
Wed 11:38:24 AM 35.9164 -83.8361 333° Northwest 120 138 3,200 -700 Descending Atlanta Center
Wed 11:39:24 AM 35.9017 -83.8875 251° West 139 160 2,800 -400 Descending Atlanta Center
Wed 11:41:00 AM 35.8000 -83.9833 219° Southwest  Level FlightAware Approximate
Wed 11:48:00 AM 35.8110 -83.9940 219° Southwest  Level Estimated
Wed 11:49:00 AM 35.8110 -83.9940 219° Southwest  Level Estimated

Login

Don't have an account? Register now (free) for customized features, flight alerts, and more!